createdAt,value
2018-07-14T00:00:10.423Z,21.73
2018-07-14T00:03:08.605Z,22.70
2018-07-14T00:06:05.547Z,15.53
2018-07-14T00:09:03.596Z,14.30
2018-07-14T00:12:01.291Z,18.20
2018-07-14T00:14:58.790Z,17.77
2018-07-14T00:17:56.366Z,18.93
2018-07-14T00:20:54.173Z,15.73
2018-07-14T00:23:51.598Z,15.17
2018-07-14T00:26:48.815Z,18.17
2018-07-14T00:29:45.956Z,14.40
2018-07-14T00:32:44.068Z,14.93
2018-07-14T00:35:42.078Z,16.77
2018-07-14T00:38:39.475Z,16.10
2018-07-14T00:41:37.407Z,14.93
2018-07-14T00:44:35.602Z,14.70
2018-07-14T00:47:32.796Z,18.33
2018-07-14T00:50:31.071Z,15.37
2018-07-14T00:53:29.016Z,16.50
2018-07-14T00:56:27.070Z,19.10
2018-07-14T00:59:24.115Z,14.47
2018-07-14T01:02:22.334Z,15.10
2018-07-14T01:05:19.349Z,19.27
2018-07-14T01:08:16.646Z,20.80
2018-07-14T01:11:13.875Z,17.13
2018-07-14T01:14:11.987Z,20.73
2018-07-14T01:17:09.307Z,20.23
2018-07-14T01:20:06.579Z,23.30
2018-07-14T01:23:04.217Z,18.20
2018-07-14T01:26:01.858Z,17.37
2018-07-14T01:28:59.601Z,18.83
2018-07-14T01:31:57.353Z,15.97
2018-07-14T01:34:54.479Z,14.03
2018-07-14T01:37:52.399Z,19.93
2018-07-14T01:40:50.512Z,17.37
2018-07-14T01:43:48.363Z,19.43
2018-07-14T01:46:46.394Z,18.77
2018-07-14T01:49:44.477Z,17.50
2018-07-14T01:52:42.371Z,18.73
2018-07-14T01:55:39.590Z,20.27
2018-07-14T01:58:37.042Z,15.83
2018-07-14T02:01:34.178Z,14.70
2018-07-14T02:04:32.169Z,15.30
2018-07-14T02:07:29.447Z,17.23
2018-07-14T02:10:26.958Z,17.27
2018-07-14T02:13:24.339Z,17.43
2018-07-14T02:16:21.625Z,15.30
2018-07-14T02:19:19.744Z,13.93
2018-07-14T02:22:17.046Z,15.40
2018-07-14T02:25:14.386Z,18.63
2018-07-14T02:28:11.971Z,16.03
2018-07-14T02:31:09.369Z,19.67
2018-07-14T02:34:07.209Z,16.17
2018-07-14T02:37:04.129Z,14.13
2018-07-14T02:40:02.138Z,18.47
2018-07-14T02:42:59.355Z,16.50
2018-07-14T02:45:57.298Z,21.10
2018-07-14T02:48:54.266Z,18.20
2018-07-14T02:51:51.307Z,19.00
2018-07-14T02:54:48.534Z,16.10
2018-07-14T02:57:45.757Z,14.90
2018-07-14T03:00:43.754Z,15.20
2018-07-14T03:03:41.637Z,19.73
2018-07-14T03:06:38.736Z,18.10
2018-07-14T03:09:36.064Z,18.80
2018-07-14T03:12:33.198Z,20.30
2018-07-14T03:15:30.649Z,18.23
2018-07-14T03:18:28.235Z,15.67
2018-07-14T03:21:26.394Z,16.27
2018-07-14T03:24:23.658Z,19.30
2018-07-14T03:27:21.175Z,16.53
2018-07-14T03:30:19.314Z,19.10
2018-07-14T03:33:16.864Z,16.40
2018-07-14T03:36:14.635Z,18.03
2018-07-14T03:39:11.779Z,17.80
2018-07-14T03:42:09.859Z,19.53
2018-07-14T03:45:06.919Z,16.80
2018-07-14T03:48:04.054Z,17.93
2018-07-14T03:51:01.587Z,18.20
2018-07-14T03:53:59.295Z,17.63
2018-07-14T03:56:56.803Z,16.70
2018-07-14T03:59:55.035Z,19.60
2018-07-14T04:02:52.191Z,18.33
2018-07-14T04:05:50.451Z,14.93
2018-07-14T04:08:47.959Z,17.77
2018-07-14T04:11:45.130Z,14.10
2018-07-14T04:14:42.312Z,14.30
2018-07-14T04:17:39.616Z,14.67
2018-07-14T04:20:36.722Z,12.87
2018-07-14T04:23:33.982Z,14.27
2018-07-14T04:26:31.989Z,17.07
2018-07-14T04:29:28.942Z,17.87
2018-07-14T04:32:26.020Z,13.23
2018-07-14T04:35:24.145Z,17.03
2018-07-14T04:38:21.615Z,12.80
2018-07-14T04:41:19.743Z,15.07
2018-07-14T04:44:17.081Z,12.67
2018-07-14T04:47:14.558Z,15.17
2018-07-14T04:50:11.887Z,13.17
2018-07-14T04:53:09.216Z,13.43
2018-07-14T04:56:06.489Z,15.20
2018-07-14T04:59:03.774Z,13.63
2018-07-14T05:02:01.830Z,13.37
2018-07-14T05:05:00.046Z,16.43
2018-07-14T05:07:57.392Z,15.07
2018-07-14T05:10:54.562Z,12.63
2018-07-14T05:13:51.788Z,12.00
2018-07-14T05:16:49.478Z,11.17
2018-07-14T05:19:47.448Z,15.63
2018-07-14T05:22:45.516Z,11.90
2018-07-14T05:25:43.688Z,11.23
2018-07-14T05:28:41.116Z,10.40
2018-07-14T05:31:39.311Z,10.93
2018-07-14T05:34:36.648Z,12.60
2018-07-14T05:37:34.667Z,10.83
2018-07-14T05:40:32.645Z,10.17
2018-07-14T05:43:30.589Z,11.37
2018-07-14T05:46:28.830Z,11.90
2018-07-14T05:49:27.034Z,9.97
2018-07-14T05:52:24.338Z,10.97
2018-07-14T05:55:21.915Z,10.00
2018-07-14T05:58:19.274Z,11.60
2018-07-14T06:01:16.827Z,12.23
2018-07-14T06:04:14.384Z,9.10
2018-07-14T06:07:11.526Z,9.90
2018-07-14T06:10:08.502Z,9.90
2018-07-14T06:13:06.579Z,9.17
2018-07-14T06:16:03.853Z,8.70
2018-07-14T06:19:01.284Z,9.93
2018-07-14T06:21:58.543Z,9.50
2018-07-14T06:24:56.214Z,8.80
2018-07-14T06:27:54.327Z,8.17
2018-07-14T06:30:52.249Z,7.77
2018-07-14T06:33:50.187Z,8.60
2018-07-14T06:36:48.315Z,8.47
2018-07-14T06:39:46.497Z,7.72
2018-07-14T06:42:44.460Z,8.70
2018-07-14T06:45:42.558Z,8.43
2018-07-14T06:48:40.453Z,8.27
2018-07-14T06:51:38.519Z,8.27
2018-07-14T06:54:36.554Z,8.37
2018-07-14T06:57:34.647Z,8.23
2018-07-14T07:00:32.536Z,7.90
2018-07-14T07:03:30.692Z,6.80
2018-07-14T07:06:28.043Z,7.97
2018-07-14T07:09:25.234Z,6.55
2018-07-14T07:12:22.277Z,8.93
2018-07-14T07:15:20.331Z,9.25
2018-07-14T07:18:17.594Z,11.22
2018-07-14T07:21:15.016Z,11.48
2018-07-14T07:24:12.216Z,6.33
2018-07-14T07:27:09.687Z,11.25
2018-07-14T07:30:07.160Z,6.83
2018-07-14T07:33:04.327Z,6.95
2018-07-14T07:36:02.299Z,5.45
2018-07-14T07:39:00.407Z,7.17
2018-07-14T07:41:58.414Z,5.25
2018-07-14T07:44:56.393Z,5.67
2018-07-14T07:47:54.403Z,6.28
2018-07-14T07:50:52.473Z,7.40
2018-07-14T07:53:50.430Z,5.22
2018-07-14T07:56:48.299Z,5.30
2018-07-14T07:59:46.181Z,6.80
2018-07-14T08:02:43.176Z,6.75
2018-07-14T08:05:41.016Z,4.97
2018-07-14T08:08:38.921Z,5.43
2018-07-14T08:11:36.846Z,5.22
2018-07-14T08:14:34.159Z,4.70
2018-07-14T08:17:31.672Z,4.60
2018-07-14T08:20:29.077Z,5.03
2018-07-14T08:23:26.431Z,5.95
2018-07-14T08:26:23.984Z,5.20
2018-07-14T08:29:21.149Z,5.22
2018-07-14T08:32:18.781Z,7.08
2018-07-14T08:35:16.222Z,4.72
2018-07-14T08:38:13.867Z,3.98
2018-07-14T08:41:10.894Z,3.60
2018-07-14T08:44:08.728Z,4.90
2018-07-14T08:47:06.223Z,4.80
2018-07-14T08:50:04.371Z,3.98
2018-07-14T08:53:02.468Z,3.58
2018-07-14T08:56:00.747Z,8.28
2018-07-14T08:58:57.938Z,4.12
2018-07-14T09:01:55.035Z,6.45
2018-07-14T09:04:53.235Z,6.37
2018-07-14T09:07:51.290Z,4.12
2018-07-14T09:10:49.281Z,5.27
2018-07-14T09:13:47.594Z,8.07
2018-07-14T09:16:45.918Z,4.53
2018-07-14T09:19:43.878Z,4.22
2018-07-14T09:22:41.767Z,5.62
2018-07-14T09:25:39.039Z,3.77
2018-07-14T09:28:36.257Z,4.40
2018-07-14T09:31:33.843Z,7.37
2018-07-14T09:34:31.915Z,3.95
2018-07-14T09:37:30.068Z,4.47
2018-07-14T09:40:27.231Z,7.47
2018-07-14T09:43:24.636Z,5.58
2018-07-14T09:46:22.348Z,5.30
2018-07-14T09:49:20.270Z,5.33
2018-07-14T09:52:18.270Z,4.60
2018-07-14T09:55:15.974Z,6.97
2018-07-14T09:58:14.054Z,4.47
2018-07-14T10:01:14.383Z,4.92
2018-07-14T10:04:11.611Z,5.47
2018-07-14T10:07:09.543Z,6.33
2018-07-14T10:10:07.897Z,5.70
2018-07-14T10:13:05.969Z,5.17
2018-07-14T10:16:04.127Z,6.03
2018-07-14T10:19:02.235Z,7.72
2018-07-14T10:22:00.422Z,5.27
2018-07-14T10:24:58.443Z,6.28
2018-07-14T10:27:55.472Z,5.73
2018-07-14T10:30:53.635Z,5.27
2018-07-14T10:33:51.595Z,5.60
2018-07-14T10:36:48.835Z,5.78
2018-07-14T10:39:47.060Z,5.97
2018-07-14T10:42:44.301Z,5.90
2018-07-14T10:45:41.747Z,5.80
2018-07-14T10:48:39.231Z,6.00
2018-07-14T10:51:36.425Z,6.30
2018-07-14T10:54:33.951Z,6.83
2018-07-14T10:57:31.624Z,6.08
2018-07-14T11:00:29.110Z,5.47
2018-07-14T11:03:26.364Z,5.53
2018-07-14T11:06:24.098Z,5.45
2018-07-14T11:09:21.985Z,6.03
2018-07-14T11:12:19.292Z,6.22
2018-07-14T11:15:17.199Z,5.30
2018-07-14T11:18:15.058Z,6.13
2018-07-14T11:21:13.087Z,5.80
2018-07-14T11:24:11.141Z,5.57
2018-07-14T11:27:08.934Z,6.23
2018-07-14T11:30:06.762Z,8.70
2018-07-14T11:33:04.659Z,6.83
2018-07-14T11:36:01.827Z,6.10
2018-07-14T11:39:00.017Z,7.37
2018-07-14T11:41:57.857Z,6.20
2018-07-14T11:44:55.788Z,6.70
2018-07-14T11:47:53.043Z,7.10
2018-07-14T11:50:50.287Z,7.47
2018-07-14T11:53:47.876Z,7.40
2018-07-14T11:56:45.119Z,14.20
2018-07-14T11:59:42.220Z,7.87
2018-07-14T12:02:39.697Z,8.67
2018-07-14T12:05:37.092Z,7.67
2018-07-14T12:08:34.688Z,8.67
2018-07-14T12:11:32.318Z,9.77
2018-07-14T12:14:29.702Z,7.87
2018-07-14T12:17:27.601Z,8.70
2018-07-14T12:20:25.207Z,9.47
2018-07-14T12:23:22.732Z,8.90
2018-07-14T12:26:20.699Z,8.53
2018-07-14T12:29:18.791Z,9.30
2018-07-14T12:32:17.009Z,9.27
2018-07-14T12:35:15.173Z,8.63
2018-07-14T12:38:13.587Z,9.93
2018-07-14T12:41:11.620Z,9.73
2018-07-14T12:44:09.642Z,10.00
2018-07-14T12:47:07.518Z,8.70
2018-07-14T12:50:05.485Z,10.37
2018-07-14T12:53:03.457Z,10.77
2018-07-14T12:56:01.402Z,9.07
2018-07-14T12:58:58.590Z,9.00
2018-07-14T13:01:57.015Z,9.83
2018-07-14T13:04:54.166Z,9.90
2018-07-14T13:07:51.550Z,10.10
2018-07-14T13:10:49.568Z,11.77
2018-07-14T13:13:47.478Z,11.03
2018-07-14T13:16:45.111Z,10.47
2018-07-14T13:19:42.958Z,9.30
2018-07-14T13:22:40.323Z,10.83
2018-07-14T13:25:37.844Z,11.13
2018-07-14T13:28:35.679Z,10.60
2018-07-14T13:31:33.659Z,10.17
2018-07-14T13:34:31.002Z,11.47
2018-07-14T13:37:28.867Z,10.30
2018-07-14T13:40:26.944Z,11.67
2018-07-14T13:43:24.263Z,10.33
2018-07-14T13:46:22.219Z,8.03
2018-07-14T13:49:20.174Z,7.50
2018-07-14T13:52:18.455Z,9.10
2018-07-14T13:55:16.407Z,10.70
2018-07-14T13:58:14.473Z,7.90
2018-07-14T14:01:12.488Z,8.90
2018-07-14T14:04:10.526Z,8.80
2018-07-14T14:07:08.427Z,7.60
2018-07-14T14:10:06.590Z,7.80
2018-07-14T14:13:04.619Z,9.00
2018-07-14T14:16:02.262Z,8.83
2018-07-14T14:18:59.553Z,8.77
2018-07-14T14:21:57.531Z,11.10
2018-07-14T14:24:54.528Z,8.33
2018-07-14T14:27:52.645Z,7.37
2018-07-14T14:30:49.844Z,9.80
2018-07-14T14:33:47.403Z,8.23
2018-07-14T14:36:45.202Z,6.63
2018-07-14T14:39:42.619Z,7.20
2018-07-14T14:42:40.135Z,7.50
2018-07-14T14:45:37.747Z,7.47
2018-07-14T14:48:35.851Z,7.23
2018-07-14T14:51:34.060Z,6.70
2018-07-14T14:54:32.051Z,7.97
2018-07-14T14:57:30.171Z,7.10
2018-07-14T15:00:28.090Z,6.40
2018-07-14T15:03:26.016Z,7.10
2018-07-14T15:06:23.303Z,6.60
2018-07-14T15:09:21.498Z,6.80
2018-07-14T15:12:19.412Z,6.30
2018-07-14T15:15:17.428Z,6.70
2018-07-14T15:18:15.300Z,7.60
2018-07-14T15:21:13.122Z,7.03
2018-07-14T15:24:10.038Z,6.80
2018-07-14T15:27:07.231Z,8.47
2018-07-14T15:30:04.640Z,6.83
2018-07-14T15:33:02.823Z,7.47
2018-07-14T15:35:59.694Z,19.73
2018-07-14T15:38:56.636Z,21.13
2018-07-14T15:41:54.175Z,6.17
2018-07-14T15:44:51.705Z,6.03
2018-07-14T15:47:49.728Z,6.73
2018-07-14T15:50:46.935Z,4.90
2018-07-14T15:53:44.168Z,5.47
2018-07-14T15:56:41.638Z,8.37
2018-07-14T15:59:39.463Z,5.63
2018-07-14T16:02:37.102Z,5.97
2018-07-14T16:05:35.215Z,10.83
2018-07-14T16:08:32.302Z,16.87
2018-07-14T16:11:30.243Z,7.50
2018-07-14T16:14:28.088Z,15.70
2018-07-14T16:17:26.244Z,5.97
2018-07-14T16:20:23.614Z,7.83
2018-07-14T16:23:21.655Z,9.53
2018-07-14T16:26:19.273Z,6.97
2018-07-14T16:29:16.426Z,8.47
2018-07-14T16:32:14.162Z,5.47
2018-07-14T16:35:12.278Z,6.13
2018-07-14T16:38:10.219Z,5.53
2018-07-14T16:41:07.297Z,7.63
2018-07-14T16:44:04.639Z,8.80
2018-07-14T16:47:02.611Z,11.27
2018-07-14T16:49:59.817Z,6.37
2018-07-14T16:52:57.776Z,6.47
2018-07-14T16:55:55.719Z,5.33
2018-07-14T16:58:53.606Z,4.90
2018-07-14T17:01:50.815Z,4.17
2018-07-14T17:04:48.380Z,4.63
2018-07-14T17:07:45.779Z,4.80
2018-07-14T17:10:42.980Z,4.53
2018-07-14T17:13:40.712Z,6.37
2018-07-14T17:16:38.802Z,4.17
2018-07-14T17:19:36.332Z,4.47
2018-07-14T17:22:33.583Z,4.97
2018-07-14T17:25:31.444Z,4.53
2018-07-14T17:28:29.188Z,4.83
2018-07-14T17:31:27.176Z,6.33
2018-07-14T17:34:24.259Z,8.10
2018-07-14T17:37:22.106Z,9.20
2018-07-14T17:40:19.628Z,4.20
2018-07-14T17:43:17.119Z,6.90
2018-07-14T17:46:15.946Z,4.37
2018-07-14T17:49:13.105Z,5.03
2018-07-14T17:52:10.656Z,4.17
2018-07-14T17:55:08.709Z,5.87
2018-07-14T17:58:06.812Z,4.83
2018-07-14T18:01:04.022Z,4.80
2018-07-14T18:04:01.852Z,4.33
2018-07-14T18:06:59.658Z,4.03
2018-07-14T18:09:57.370Z,4.10
2018-07-14T18:12:55.199Z,3.87
2018-07-14T18:15:53.170Z,6.03
2018-07-14T18:18:51.345Z,4.77
2018-07-14T18:21:48.611Z,4.47
2018-07-14T18:24:46.739Z,4.90
2018-07-14T18:27:44.489Z,5.03
2018-07-14T18:30:42.286Z,5.13
2018-07-14T18:33:39.298Z,5.57
2018-07-14T18:36:37.418Z,5.20
2018-07-14T18:39:35.066Z,4.67
2018-07-14T18:42:33.076Z,4.07
2018-07-14T18:45:30.591Z,4.60
2018-07-14T18:48:28.407Z,4.77
2018-07-14T18:51:26.189Z,4.30
2018-07-14T18:54:24.162Z,4.00
2018-07-14T18:57:21.367Z,5.43
2018-07-14T19:00:18.646Z,4.93
2018-07-14T19:03:16.231Z,4.10
2018-07-14T19:06:13.503Z,6.30
2018-07-14T19:09:11.866Z,4.00
2018-07-14T19:12:09.929Z,5.97
2018-07-14T19:15:07.638Z,3.90
2018-07-14T19:18:04.996Z,4.63
2018-07-14T19:21:02.156Z,4.10
2018-07-14T19:23:59.714Z,3.90
2018-07-14T19:26:57.132Z,4.03
2018-07-14T19:29:54.328Z,4.77
2018-07-14T19:32:51.671Z,6.53
2018-07-14T19:35:49.663Z,4.33
2018-07-14T19:38:46.614Z,3.87
2018-07-14T19:41:44.400Z,4.67
2018-07-14T19:44:41.680Z,4.03
2018-07-14T19:47:38.886Z,4.63
2018-07-14T19:50:36.727Z,4.30
2018-07-14T19:53:34.538Z,4.33
2018-07-14T19:56:32.287Z,4.57
2018-07-14T19:59:30.214Z,4.03
2018-07-14T20:02:27.721Z,4.73
2018-07-14T20:05:25.458Z,5.10
2018-07-14T20:08:22.888Z,5.30
2018-07-14T20:11:20.090Z,3.97
2018-07-14T20:14:17.355Z,4.83
2018-07-14T20:17:15.606Z,4.07
2018-07-14T20:20:13.031Z,5.10
2018-07-14T20:23:10.860Z,4.47
2018-07-14T20:26:08.891Z,3.93
2018-07-14T20:29:06.088Z,3.67
2018-07-14T20:32:03.743Z,4.90
2018-07-14T20:35:01.451Z,4.27
2018-07-14T20:37:59.296Z,4.70
2018-07-14T20:40:56.879Z,7.43
2018-07-14T20:43:54.870Z,5.97
2018-07-14T20:46:52.918Z,9.73
2018-07-14T20:49:51.049Z,7.23
2018-07-14T20:52:49.259Z,5.97
2018-07-14T20:55:46.848Z,6.17
2018-07-14T20:58:44.839Z,5.97
2018-07-14T21:01:42.787Z,5.57
2018-07-14T21:04:41.058Z,8.70
2018-07-14T21:07:39.158Z,5.50
2018-07-14T21:10:36.896Z,5.27
2018-07-14T21:13:34.610Z,6.23
2018-07-14T21:16:32.561Z,5.40
2018-07-14T21:19:30.628Z,5.50
2018-07-14T21:22:28.503Z,5.77
2018-07-14T21:25:26.716Z,6.83
2018-07-14T21:28:24.216Z,5.30
2018-07-14T21:31:21.519Z,5.53
2018-07-14T21:34:18.987Z,6.00
2018-07-14T21:37:16.160Z,4.97
2018-07-14T21:40:13.828Z,4.97
2018-07-14T21:43:11.266Z,5.77
2018-07-14T21:46:08.959Z,4.50
2018-07-14T21:49:06.086Z,6.67
2018-07-14T21:52:03.551Z,8.07
2018-07-14T21:55:01.565Z,6.17
2018-07-14T21:57:58.751Z,5.67
2018-07-14T22:01:02.686Z,5.23
2018-07-14T22:04:00.534Z,6.30
2018-07-14T22:06:59.626Z,6.23
2018-07-14T22:09:57.306Z,5.00
2018-07-14T22:12:55.067Z,5.10
2018-07-14T22:15:52.451Z,5.57
2018-07-14T22:18:50.620Z,5.37
2018-07-14T22:21:48.467Z,4.63
2018-07-14T22:24:46.110Z,4.90
2018-07-14T22:27:44.294Z,5.73
2018-07-14T22:30:42.526Z,6.70
2018-07-14T22:33:40.411Z,4.60
2018-07-14T22:36:37.552Z,4.97
2018-07-14T22:39:34.936Z,7.83
2018-07-14T22:42:32.059Z,5.53
2018-07-14T22:45:29.286Z,5.63
2018-07-14T22:48:26.398Z,5.23
2018-07-14T22:51:24.457Z,5.17
2018-07-14T22:54:22.717Z,5.03
2018-07-14T22:57:19.867Z,5.10
2018-07-14T23:00:17.979Z,5.00
2018-07-14T23:03:15.573Z,5.40
2018-07-14T23:06:12.758Z,5.97
2018-07-14T23:09:11.087Z,4.80
2018-07-14T23:12:09.229Z,5.40
2018-07-14T23:15:06.637Z,4.80
2018-07-14T23:18:04.565Z,5.57
2018-07-14T23:21:02.556Z,5.63
2018-07-14T23:24:09.539Z,5.90
2018-07-14T23:27:07.483Z,6.33
2018-07-14T23:30:04.782Z,6.03
2018-07-14T23:33:02.805Z,5.37
2018-07-14T23:36:00.026Z,6.20
2018-07-14T23:38:58.008Z,4.93
2018-07-14T23:41:55.523Z,5.73
2018-07-14T23:44:52.790Z,5.03
2018-07-14T23:47:51.006Z,5.03
2018-07-14T23:50:48.817Z,4.73
2018-07-14T23:53:46.178Z,4.60
2018-07-14T23:56:43.583Z,4.90
2018-07-14T23:59:40.700Z,5.63
